Time;durP1;ratioP1;P1;durP2;ratioP2;P2;SDS_P1;SDS_P2;PMS_P1;PMS_P2;Temp;Humidity;BMP_temperature;BMP_pressure;BME280_temperature;BME280_humidity;BME280_pressure;Samples;Min_cycle;Max_cycle;Signal;HPM_P1;HPM_P2
2023/10/13 10:14:19;;;;;;;2.17;0.95;;;19.20;48.50;;;;;;6209940;23;20023;-86
2023/10/13 10:17:22;;;;;;;2.58;1.17;;;19.20;48.40;;;;;;6214499;23;20012;-83
2023/10/13 10:19:56;;;;;;;1.67;0.90;;;19.20;48.30;;;;;;6041557;23;20007;-83
2023/10/13 10:22:36;;;;;;;4.43;1.08;;;19.20;48.30;;;;;;6144317;23;20133;-85
2023/10/13 10:25:14;;;;;;;3.80;1.10;;;19.20;48.50;;;;;;6215539;23;19997;-85
2023/10/13 10:27:41;;;;;;;1.60;0.80;;;19.20;48.70;;;;;;6188621;23;20043;-84
2023/10/13 10:30:13;;;;;;;3.63;1.40;;;19.10;48.90;;;;;;6214179;23;20007;-84
2023/10/13 10:32:41;;;;;;;2.38;1.15;;;19.10;49.20;;;;;;6214387;23;20005;-84
2023/10/13 10:35:20;;;;;;;2.63;0.98;;;19.10;49.70;;;;;;6214842;23;20008;-83
2023/10/13 10:37:47;;;;;;;3.03;0.90;;;19.00;49.80;;;;;;6168044;23;20076;-81
2023/10/13 10:43:08;;;;;;;2.92;0.82;;;19.00;49.00;;;;;;6146114;23;20071;-85
2023/10/13 10:45:45;;;;;;;3.15;0.90;;;19.10;49.40;;;;;;6163815;23;20013;-82
2023/10/13 10:48:31;;;;;;;1.98;0.90;;;19.00;49.50;;;;;;6164312;23;20099;-84
2023/10/13 10:51:06;;;;;;;4.63;0.90;;;19.00;49.60;;;;;;6171968;23;20004;-85
2023/10/13 10:53:34;;;;;;;1.25;0.90;;;19.00;49.50;;;;;;6215521;23;20452;-85
2023/10/13 10:56:19;;;;;;;5.10;0.90;;;19.00;49.70;;;;;;6189817;23;20004;-89
2023/10/13 10:59:00;;;;;;;2.00;1.10;;;18.90;49.40;;;;;;6168351;23;20004;-84
2023/10/13 11:01:38;;;;;;;3.28;0.98;;;18.90;49.80;;;;;;6191194;23;20254;-88
2023/10/13 11:04:14;;;;;;;2.55;0.98;;;18.90;49.60;;;;;;6168855;23;20000;-85
2023/10/13 11:06:49;;;;;;;2.65;0.88;;;18.90;49.80;;;;;;6214771;23;20000;-84
2023/10/13 11:09:31;;;;;;;2.45;0.90;;;18.90;49.80;;;;;;6188649;23;20016;-81
2023/10/13 11:12:14;;;;;;;3.50;1.08;;;18.80;49.70;;;;;;6192249;23;19996;-88
2023/10/13 11:14:42;;;;;;;3.28;0.80;;;18.80;50.60;;;;;;6187567;23;20032;-83
2023/10/13 11:17:24;;;;;;;2.65;1.00;;;18.80;50.00;;;;;;6188285;23;20001;-82
2023/10/13 11:19:51;;;;;;;3.08;1.10;;;18.80;50.10;;;;;;6188702;23;20005;-77
2023/10/13 11:22:32;;;;;;;1.85;0.77;;;18.80;50.20;;;;;;6212691;23;20004;-76
2023/10/13 11:25:12;;;;;;;2.70;0.65;;;18.80;50.30;;;;;;6212091;23;20451;-80
2023/10/13 11:31:19;;;;;;;2.17;0.98;;;18.80;50.70;;;;;;6186773;23;20078;-78
2023/10/13 11:33:18;;;;;;;2.65;1.10;;;18.80;50.70;;;;;;6165942;23;20009;-78
2023/10/13 11:41:12;;;;;;;3.75;1.27;;;18.60;51.10;;;;;;6187297;23;20074;-82
2023/10/13 11:43:52;;;;;;;2.10;0.85;;;18.60;51.60;;;;;;6211741;23;20008;-81
2023/10/13 11:51:49;;;;;;;3.03;1.20;;;18.50;51.70;;;;;;6165190;23;20034;-81
2023/10/13 11:54:21;;;;;;;2.90;1.10;;;18.50;52.00;;;;;;6211593;23;20005;-84
2023/10/13 11:56:49;;;;;;;2.50;1.40;;;18.40;52.00;;;;;;6184976;23;20086;-84
2023/10/13 11:59:24;;;;;;;2.55;1.23;;;18.40;52.10;;;;;;6159990;23;20012;-84
2023/10/13 12:04:51;;;;;;;2.70;1.20;;;18.40;52.60;;;;;;6211557;23;20023;-84
2023/10/13 13:12:57;;;;;;;2.78;1.20;;;18.30;52.60;;;;;;6199452;23;20059;-81
2023/10/13 13:15:25;;;;;;;2.30;0.88;;;18.30;52.50;;;;;;6187178;23;20161;-83
2023/10/13 13:17:52;;;;;;;2.70;1.00;;;18.30;52.60;;;;;;6214309;23;20059;-82
2023/10/13 13:20:30;;;;;;;1.23;0.82;;;18.20;52.70;;;;;;6214430;23;20408;-83
2023/10/13 13:23:02;;;;;;;2.10;1.00;;;18.30;52.60;;;;;;6187573;23;20087;-82
2023/10/13 13:25:33;;;;;;;2.65;0.95;;;18.20;52.50;;;;;;6188724;23;20000;-83
2023/10/13 13:28:05;;;;;;;4.80;0.98;;;18.20;53.10;;;;;;6213890;23;20313;-83
2023/10/13 13:30:34;;;;;;;2.45;0.95;;;18.20;52.80;;;;;;6164728;23;20080;-83
2023/10/13 13:33:10;;;;;;;4.40;1.02;;;18.20;52.80;;;;;;6186536;23;20036;-82
2023/10/13 13:35:43;;;;;;;1.77;0.93;;;18.20;52.90;;;;;;6214156;23;20004;-83
2023/10/13 13:38:16;;;;;;;2.78;0.90;;;18.20;53.30;;;;;;6213468;23;20028;-82
2023/10/13 13:40:48;;;;;;;1.83;0.95;;;18.20;53.30;;;;;;6186281;23;20009;-83
2023/10/13 13:43:31;;;;;;;1.90;0.85;;;18.20;53.10;;;;;;6188631;23;20005;-82
2023/10/13 13:46:02;;;;;;;2.65;0.95;;;18.20;53.10;;;;;;6213630;23;20432;-83
2023/10/13 13:48:30;;;;;;;4.18;0.88;;;18.20;53.10;;;;;;6162203;23;20016;-84
2023/10/13 13:51:04;;;;;;;2.17;0.70;;;18.10;53.20;;;;;;6162940;23;20000;-84
2023/10/13 13:53:34;;;;;;;1.15;0.70;;;18.10;53.20;;;;;;6214395;23;20008;-84
2023/10/13 13:56:02;;;;;;;;;;;18.10;53.60;;;;;;6164597;23;19997;-84
2023/10/13 13:58:30;;;;;;;3.00;0.90;;;18.00;53.50;;;;;;6214190;23;19979;-84
2023/10/13 14:01:11;;;;;;;1.10;0.60;;;18.10;53.70;;;;;;6214772;23;20001;-82
2023/10/13 14:04:25;;;;;;;2.20;0.75;;;18.00;53.50;;;;;;6189692;23;20011;-82
2023/10/13 14:06:27;;;;;;;3.47;0.75;;;18.00;53.70;;;;;;6156214;23;20005;-83
2023/10/13 14:08:56;;;;;;;2.22;0.80;;;18.00;53.50;;;;;;6188146;23;20015;-82
2023/10/13 14:14:47;;;;;;;1.52;0.73;;;18.00;53.70;;;;;;6190272;23;20056;-83
2023/10/13 14:17:09;;;;;;;2.10;0.88;;;17.90;53.90;;;;;;6209147;23;20008;-82
2023/10/13 14:19:45;;;;;;;2.63;1.00;;;17.90;53.70;;;;;;6214558;23;20001;-81
2023/10/13 14:22:13;;;;;;;4.95;1.00;;;17.90;53.70;;;;;;6191101;23;20005;-82
2023/10/13 14:24:44;;;;;;;2.70;0.90;;;17.90;53.80;;;;;;6216068;23;20008;-81
2023/10/13 14:27:19;;;;;;;6.35;0.95;;;17.90;54.00;;;;;;6166101;23;20433;-82
2023/10/13 14:29:47;;;;;;;1.40;0.80;;;17.90;53.90;;;;;;6215082;23;20009;-82
2023/10/13 14:32:17;;;;;;;4.13;0.88;;;17.90;54.00;;;;;;6163473;23;20000;-82
2023/10/13 14:34:48;;;;;;;0.95;0.60;;;17.90;54.00;;;;;;6189066;23;20324;-81
2023/10/13 14:37:26;;;;;;;5.60;0.98;;;17.80;53.60;;;;;;6164546;23;20009;-82
2023/10/13 14:39:57;;;;;;;2.25;0.68;;;17.80;53.80;;;;;;6214875;23;20001;-82
2023/10/13 14:42:27;;;;;;;1.40;0.80;;;17.80;53.90;;;;;;6189437;23;20004;-82
2023/10/13 14:44:57;;;;;;;3.10;0.75;;;17.80;54.20;;;;;;6164260;23;20488;-80
2023/10/13 14:47:25;;;;;;;2.63;0.95;;;17.80;54.30;;;;;;6165367;23;19997;-81
2023/10/13 14:49:59;;;;;;;3.17;1.27;;;17.80;53.70;;;;;;6188072;23;20024;-82
2023/10/13 14:52:27;;;;;;;1.95;0.88;;;17.70;53.70;;;;;;6214768;23;20019;-82
2023/10/13 14:54:57;;;;;;;1.88;0.68;;;17.70;53.90;;;;;;6163953;23;20016;-82
2023/10/13 14:57:27;;;;;;;;;;;17.70;53.60;;;;;;6215724;23;20012;-82
2023/10/13 15:00:01;;;;;;;2.07;0.80;;;17.70;53.80;;;;;;6215445;23;19903;-81
2023/10/13 15:02:29;;;;;;;2.40;0.85;;;17.70;53.70;;;;;;6215068;23;20003;-82
2023/10/13 15:04:57;;;;;;;4.38;0.80;;;17.70;53.70;;;;;;6214075;23;20004;-82
2023/10/13 15:07:27;;;;;;;1.50;0.70;;;17.70;53.80;;;;;;6214006;23;20075;-82
2023/10/13 15:09:56;;;;;;;1.33;0.88;;;17.70;53.70;;;;;;6188700;23;20009;-82
2023/10/13 15:12:25;;;;;;;5.07;0.80;;;17.70;53.80;;;;;;6187208;23;20313;-82
2023/10/13 15:14:53;;;;;;;3.38;0.80;;;17.70;54.30;;;;;;6158383;23;20337;-82
2023/10/13 15:17:23;;;;;;;1.95;0.77;;;17.70;54.60;;;;;;6158239;23;20005;-82
2023/10/13 15:19:51;;;;;;;2.58;0.90;;;17.70;54.30;;;;;;6159610;23;20011;-82
2023/10/13 15:22:25;;;;;;;1.35;0.60;;;17.70;54.30;;;;;;6183870;23;20009;-82
2023/10/13 15:25:09;;;;;;;2.70;0.88;;;17.60;54.80;;;;;;6159381;23;20028;-82
2023/10/13 15:27:41;;;;;;;2.15;0.80;;;17.60;54.60;;;;;;6185083;23;20019;-82
2023/10/13 15:30:23;;;;;;;3.08;0.73;;;17.60;54.90;;;;;;6184796;23;20055;-82
2023/10/13 15:32:51;;;;;;;3.25;0.80;;;17.60;55.20;;;;;;6161384;23;20411;-82
2023/10/13 15:35:19;;;;;;;2.58;0.80;;;17.50;55.10;;;;;;6134118;23;20012;-82
2023/10/13 15:37:49;;;;;;;1.23;0.63;;;17.40;55.20;;;;;;6134585;23;20018;-82
2023/10/13 15:40:16;;;;;;;2.80;0.88;;;17.40;55.50;;;;;;6159187;23;20001;-82
2023/10/13 15:42:47;;;;;;;3.50;0.98;;;17.40;55.50;;;;;;6184218;23;20084;-82
2023/10/13 15:45:17;;;;;;;1.00;0.63;;;17.40;55.30;;;;;;6158238;23;20080;-82
2023/10/13 15:47:47;;;;;;;;;;;17.40;55.50;;;;;;6159922;23;20005;-82
2023/10/13 15:50:16;;;;;;;2.35;0.90;;;17.40;56.00;;;;;;6157152;23;20308;-81
2023/10/13 15:52:47;;;;;;;1.08;0.60;;;17.30;56.30;;;;;;6134590;23;20005;-82
2023/10/13 15:55:14;;;;;;;;;;;17.30;55.90;;;;;;6135025;23;20013;-82
2023/10/13 15:57:42;;;;;;;4.38;0.70;;;17.30;56.20;;;;;;6157483;23;20284;-82
2023/10/13 16:00:29;;;;;;;2.40;0.90;;;17.30;56.00;;;;;;6158392;23;20009;-82
2023/10/13 16:02:59;;;;;;;1.30;0.80;;;17.30;56.20;;;;;;6162354;23;20004;-81
2023/10/13 16:05:37;;;;;;;1.83;0.77;;;17.20;56.20;;;;;;6159033;23;20028;-82
2023/10/13 16:08:06;;;;;;;1.38;0.70;;;17.20;56.40;;;;;;6135672;23;20013;-82
2023/10/13 16:10:33;;;;;;;0.57;0.57;;;17.20;56.40;;;;;;6133707;23;20001;-82
2023/10/13 16:13:00;;;;;;;2.28;0.93;;;17.20;56.50;;;;;;6166824;23;20016;-82
2023/10/13 16:15:28;;;;;;;1.35;0.80;;;17.20;56.70;;;;;;6214151;23;20007;-82
2023/10/13 16:17:55;;;;;;;2.05;0.60;;;17.20;56.90;;;;;;6213855;23;20309;-82
2023/10/13 16:20:24;;;;;;;4.03;0.82;;;17.10;57.00;;;;;;6187942;23;20004;-81
2023/10/13 16:22:51;;;;;;;3.72;0.80;;;17.10;57.00;;;;;;6188672;23;20016;-81
2023/10/13 16:25:21;;;;;;;2.42;0.90;;;17.10;56.60;;;;;;6188452;23;20135;-87
2023/10/13 16:27:49;;;;;;;3.08;0.98;;;17.10;56.90;;;;;;6213209;23;20008;-81
2023/10/13 16:30:18;;;;;;;3.65;0.90;;;17.10;56.70;;;;;;6207935;23;20028;-80
2023/10/13 16:32:46;;;;;;;1.53;0.90;;;17.10;56.80;;;;;;6185467;23;20005;-79
2023/10/13 16:35:17;;;;;;;2.05;0.93;;;17.10;56.90;;;;;;6184721;23;20031;-78
2023/10/13 16:37:51;;;;;;;7.38;1.00;;;17.10;57.30;;;;;;6160045;23;20063;-77
2023/10/13 16:40:19;;;;;;;2.33;0.90;;;17.00;57.30;;;;;;6210680;23;20483;-77
2023/10/13 16:42:52;;;;;;;3.15;0.90;;;17.00;57.20;;;;;;6184643;23;20076;-77
2023/10/13 16:45:23;;;;;;;3.45;1.10;;;17.00;57.40;;;;;;6185191;23;20012;-77
2023/10/13 16:47:53;;;;;;;1.80;0.95;;;17.00;57.20;;;;;;6185731;23;20021;-78
2023/10/13 16:50:21;;;;;;;1.73;1.13;;;17.00;57.20;;;;;;6160919;23;20024;-77
2023/10/13 16:52:49;;;;;;;1.65;1.05;;;16.90;57.70;;;;;;6210981;23;20023;-75
2023/10/13 16:55:20;;;;;;;2.88;0.70;;;16.80;57.40;;;;;;6185246;23;20071;-77
2023/10/13 20:14:09;;;;;;;3.53;1.08;;;16.20;65.30;;;;;;6185795;23;20032;-79
2023/10/13 20:16:36;;;;;;;2.80;1.17;;;16.20;65.90;;;;;;6180423;23;20017;-79
2023/10/13 20:19:03;;;;;;;2.50;1.10;;;16.30;65.20;;;;;;6181094;23;20004;-78
2023/10/13 20:21:31;;;;;;;3.15;1.08;;;16.30;65.80;;;;;;6181128;23;20001;-79
2023/10/13 20:24:00;;;;;;;3.10;1.20;;;16.30;65.00;;;;;;6181066;23;20005;-77
2023/10/13 20:26:27;;;;;;;2.22;1.20;;;16.40;64.80;;;;;;6180703;23;20008;-75
2023/10/13 20:28:55;;;;;;;2.55;1.23;;;16.40;64.50;;;;;;6153987;23;20448;-89
2023/10/13 20:31:22;;;;;;;3.83;1.10;;;16.40;64.30;;;;;;6152206;23;20011;-78
2023/10/13 20:33:54;;;;;;;4.10;1.40;;;16.50;64.70;;;;;;6179705;23;20041;-79
2023/10/13 20:36:24;;;;;;;1.80;1.02;;;16.50;64.40;;;;;;6106593;23;20380;-79
2023/10/13 20:38:52;;;;;;;2.20;1.00;;;16.60;64.30;;;;;;6154486;23;20016;-78
2023/10/13 20:41:19;;;;;;;3.03;1.27;;;16.60;63.40;;;;;;6153584;23;20012;-77
2023/10/13 20:43:54;;;;;;;3.78;0.88;;;16.70;62.80;;;;;;6154374;23;20381;-77
2023/10/13 20:46:22;;;;;;;1.33;0.80;;;16.70;62.10;;;;;;6131919;23;20015;-81
2023/10/13 20:48:49;;;;;;;3.47;1.00;;;16.70;62.00;;;;;;6153442;23;20092;-82
2023/10/13 20:51:16;;;;;;;3.50;1.35;;;16.80;61.70;;;;;;6154413;23;20001;-79
2023/10/13 20:53:46;;;;;;;1.30;0.75;;;16.80;61.50;;;;;;6104639;23;20005;-81
2023/10/13 20:56:16;;;;;;;2.00;0.90;;;16.80;61.10;;;;;;6106344;23;20086;-85
2023/10/13 20:58:47;;;;;;;1.73;1.05;;;16.90;61.10;;;;;;6180238;23;20005;-86
2023/10/13 21:01:14;;;;;;;1.95;0.80;;;16.90;60.70;;;;;;6154358;23;20001;-83
2023/10/13 21:03:43;;;;;;;5.45;1.10;;;17.00;60.40;;;;;;6127067;23;20430;-83
2023/10/13 21:06:10;;;;;;;1.60;0.85;;;17.10;60.00;;;;;;6105046;23;20012;-94
2023/10/13 21:08:45;;;;;;;1.98;0.95;;;17.10;60.30;;;;;;6130609;23;20023;-85
2023/10/13 21:11:17;;;;;;;3.83;0.85;;;17.20;60.10;;;;;;6131879;23;20001;-87
2023/10/13 21:13:44;;;;;;;1.63;0.80;;;17.30;60.10;;;;;;6171767;23;20105;-85
2023/10/13 21:16:12;;;;;;;2.45;1.17;;;17.30;60.20;;;;;;6159711;23;20009;-88
2023/10/13 21:18:42;;;;;;;4.22;0.90;;;17.30;60.00;;;;;;6184464;23;20001;-90
2023/10/13 21:21:23;;;;;;;;;;;17.40;59.90;;;;;;6211009;23;20040;-77
2023/10/13 21:23:51;;;;;;;1.80;1.13;;;17.50;60.30;;;;;;6185829;23;19904;-78
2023/10/13 21:26:22;;;;;;;2.90;0.85;;;17.50;60.50;;;;;;6184288;23;20013;-78
2023/10/13 21:28:49;;;;;;;1.60;0.40;;;17.60;59.80;;;;;;6212368;23;20021;-78
2023/10/13 21:31:17;;;;;;;3.38;0.80;;;17.70;58.80;;;;;;6210380;23;20015;-80
2023/10/13 21:33:48;;;;;;;1.35;0.80;;;17.70;58.50;;;;;;6136743;23;20020;-80
2023/10/13 21:36:18;;;;;;;1.25;0.60;;;17.70;58.00;;;;;;6162483;23;20075;-80
2023/10/13 21:38:49;;;;;;;0.88;0.60;;;17.80;57.10;;;;;;6162348;23;20009;-80
2023/10/13 21:41:21;;;;;;;0.60;0.43;;;17.80;56.40;;;;;;6161305;23;20000;-80
2023/10/13 21:43:53;;;;;;;3.08;0.88;;;17.90;55.30;;;;;;6185768;23;20110;-79
2023/10/13 21:46:24;;;;;;;1.35;0.60;;;18.00;59.50;;;;;;6212969;23;20059;-79
2023/10/13 21:48:52;;;;;;;5.53;0.80;;;18.00;57.80;;;;;;6162236;23;20084;-79
2023/10/13 21:51:24;;;;;;;1.40;0.82;;;18.00;58.10;;;;;;6210982;23;20005;-78
2023/10/13 21:53:51;;;;;;;4.30;0.98;;;18.10;58.10;;;;;;6185258;23;20058;-77
2023/10/13 21:56:21;;;;;;;2.20;0.75;;;18.20;58.40;;;;;;6212370;23;20007;-77
2023/10/13 21:58:48;;;;;;;1.52;0.75;;;18.20;57.90;;;;;;6186401;23;20012;-76
2023/10/13 22:03:53;;;;;;;0.65;0.65;;;18.20;58.00;;;;;;6187665;23;20092;-80
2023/10/13 22:06:25;;;;;;;1.45;0.63;;;18.30;57.00;;;;;;6189652;23;20000;-77
2023/10/13 22:08:53;;;;;;;2.20;0.55;;;18.30;56.80;;;;;;6142249;23;20124;-79
2023/10/13 22:11:20;;;;;;;0.40;0.38;;;18.30;56.50;;;;;;6164376;23;20011;-76
2023/10/13 22:13:50;;;;;;;1.27;0.70;;;18.40;55.60;;;;;;6215698;23;20451;-76
2023/10/13 22:16:18;;;;;;;1.35;0.63;;;18.40;55.00;;;;;;6190447;23;20000;-77
2023/10/13 22:18:46;;;;;;;0.85;0.60;;;18.50;55.80;;;;;;6190431;23;20328;-77
2023/10/13 22:21:14;;;;;;;2.70;0.47;;;18.60;54.90;;;;;;6190035;23;20001;-77
2023/10/13 22:23:41;;;;;;;1.40;0.50;;;18.70;54.40;;;;;;6190100;23;20004;-77
2023/10/13 22:26:12;;;;;;;1.50;0.73;;;18.70;54.60;;;;;;6190071;23;20013;-76
2023/10/13 22:28:57;;;;;;;0.77;0.70;;;18.80;54.80;;;;;;6190245;23;20091;-77
2023/10/13 22:31:25;;;;;;;0.60;0.60;;;18.90;54.80;;;;;;6189091;23;19997;-77
2023/10/13 22:33:53;;;;;;;1.02;0.63;;;18.90;53.40;;;;;;6189731;23;20436;-74
2023/10/13 22:36:21;;;;;;;2.38;0.70;;;19.00;53.60;;;;;;6215688;23;20332;-70
2023/10/13 22:38:57;;;;;;;1.50;0.60;;;19.20;54.50;;;;;;6165233;23;20032;-70
2023/10/13 22:41:28;;;;;;;3.25;0.98;;;19.30;53.90;;;;;;6165690;23;20008;-70
2023/10/13 22:43:58;;;;;;;2.72;0.88;;;19.30;53.60;;;;;;6165223;23;20004;-70
2023/10/13 22:46:28;;;;;;;0.77;0.77;;;19.30;53.20;;;;;;6190023;23;20000;-70
2023/10/13 22:48:55;;;;;;;3.63;0.85;;;19.30;53.30;;;;;;6164021;23;20017;-70
2023/10/13 22:51:25;;;;;;;1.27;0.57;;;19.30;53.00;;;;;;6215414;23;20351;-70
2023/10/13 22:53:53;;;;;;;1.38;0.80;;;19.40;52.60;;;;;;6215501;23;20011;-70
2023/10/13 22:56:20;;;;;;;1.67;0.65;;;19.40;53.00;;;;;;6189183;23;20008;-70
2023/10/13 22:58:48;;;;;;;0.70;0.60;;;19.50;52.80;;;;;;6215531;23;20008;-70
2023/10/13 23:01:18;;;;;;;1.08;0.70;;;19.50;52.40;;;;;;6164668;23;19997;-70
2023/10/13 23:03:57;;;;;;;;;;;19.60;53.20;;;;;;6215971;23;20004;-70
2023/10/13 23:06:30;;;;;;;2.42;0.70;;;19.60;52.30;;;;;;6215279;23;19931;-70
2023/10/13 23:09:08;;;;;;;5.03;1.15;;;19.70;52.30;;;;;;6215261;23;20012;-70
2023/10/13 23:11:38;;;;;;;1.15;0.63;;;19.70;52.20;;;;;;6215309;23;20020;-70
2023/10/13 23:14:05;;;;;;;1.77;0.55;;;19.80;52.00;;;;;;6215234;23;20440;-70
2023/10/13 23:16:33;;;;;;;0.63;0.60;;;19.80;51.30;;;;;;6213499;23;20411;-69
2023/10/13 23:19:00;;;;;;;1.55;0.70;;;19.80;51.10;;;;;;6213897;23;20036;-69
2023/10/13 23:21:27;;;;;;;1.35;0.75;;;19.90;52.00;;;;;;6188626;23;20416;-69
2023/10/13 23:23:55;;;;;;;1.45;0.70;;;20.00;50.70;;;;;;6189189;23;20004;-70
2023/10/13 23:26:31;;;;;;;1.42;0.70;;;20.00;50.90;;;;;;6163810;23;20080;-69
2023/10/13 23:28:59;;;;;;;1.27;0.60;;;20.00;49.80;;;;;;6214192;23;20019;-70
2023/10/13 23:31:28;;;;;;;1.67;0.82;;;20.10;49.40;;;;;;6214406;23;20043;-70
2023/10/13 23:33:55;;;;;;;1.27;0.70;;;20.20;49.20;;;;;;6214944;23;20011;-70
2023/10/13 23:36:22;;;;;;;1.70;0.77;;;20.20;50.40;;;;;;6214888;23;20067;-70
2023/10/13 23:38:54;;;;;;;0.70;0.70;;;20.20;48.70;;;;;;6188947;23;20000;-70
2023/10/13 23:41:27;;;;;;;1.25;0.50;;;20.20;49.30;;;;;;6163124;23;20012;-71
2023/10/13 23:44:00;;;;;;;2.78;0.57;;;20.20;49.60;;;;;;6189524;23;20500;-70
2023/10/13 23:46:34;;;;;;;0.90;0.70;;;20.30;49.30;;;;;;6189893;23;20499;-70
2023/10/13 23:49:01;;;;;;;1.88;0.80;;;20.30;49.00;;;;;;6189729;23;20071;-70
2023/10/13 23:51:29;;;;;;;1.15;0.65;;;20.30;48.80;;;;;;6214276;23;20457;-70
2023/10/13 23:54:18;;;;;;;0.90;0.80;;;20.40;49.00;;;;;;6214207;23;20008;-70
2023/10/13 23:56:43;;;;;;;1.40;0.90;;;20.40;49.60;;;;;;6213648;23;20495;-70
2023/10/13 23:59:19;;;;;;;1.13;0.80;;;20.50;48.40;;;;;;6214933;23;20463;-70
